createdAt,value
2023-04-23T00:01:28.414Z,97334.70
2023-04-23T00:03:58.533Z,97331.80
2023-04-23T00:06:28.433Z,97336.11
2023-04-23T00:09:00.128Z,97343.38
2023-04-23T00:11:28.858Z,97341.80
2023-04-23T00:13:56.916Z,97338.41
2023-04-23T00:16:25.627Z,97338.02
2023-04-23T00:18:53.569Z,97336.25
2023-04-23T00:21:21.388Z,97341.74
2023-04-23T00:23:49.312Z,97336.55
2023-04-23T00:26:19.093Z,97342.03
2023-04-23T00:28:47.031Z,97335.23
2023-04-23T00:31:15.188Z,97339.64
2023-04-23T00:33:43.080Z,97343.20
2023-04-23T00:36:11.210Z,97333.87
2023-04-23T00:38:39.198Z,97341.92
2023-04-23T00:41:07.338Z,97341.37
2023-04-23T00:43:37.556Z,97340.26
2023-04-23T00:46:07.116Z,97341.86
2023-04-23T00:48:35.948Z,97344.22
2023-04-23T00:51:06.074Z,97346.89
2023-04-23T00:53:34.068Z,97345.78
2023-04-23T00:56:04.156Z,97343.11
2023-04-23T00:58:33.337Z,97345.49
2023-04-23T01:01:03.339Z,97342.32
2023-04-23T01:03:32.519Z,97343.37
2023-04-23T01:06:00.752Z,97339.34
2023-04-23T01:08:30.090Z,97339.58
2023-04-23T01:10:58.300Z,97337.12
2023-04-23T01:13:30.076Z,97335.00
2023-04-23T01:15:58.356Z,97336.34
2023-04-23T01:18:27.218Z,97336.67
2023-04-23T01:20:55.394Z,97334.05
2023-04-23T01:23:23.342Z,97341.05
2023-04-23T01:25:51.430Z,97339.47
2023-04-23T01:28:19.500Z,97337.91
2023-04-23T01:30:48.368Z,97341.92
2023-04-23T01:33:16.580Z,97338.45
2023-04-23T01:35:45.206Z,97343.03
2023-04-23T01:38:14.925Z,97339.86
2023-04-23T01:40:42.905Z,97339.24
2023-04-23T01:43:10.921Z,97335.78
2023-04-23T01:45:39.039Z,97338.92
2023-04-23T01:48:08.212Z,97339.88
2023-04-23T01:50:36.486Z,97341.64
2023-04-23T01:53:04.435Z,97336.73
2023-04-23T01:55:34.258Z,97347.10
2023-04-23T01:58:02.205Z,97337.62
2023-04-23T02:00:30.596Z,97341.35
2023-04-23T02:02:58.608Z,97335.37
2023-04-23T02:05:29.548Z,97332.62
2023-04-23T02:07:57.325Z,97324.02
2023-04-23T02:10:25.575Z,97327.97
2023-04-23T02:12:53.351Z,97325.30
2023-04-23T02:15:21.289Z,97322.55
2023-04-23T02:17:51.120Z,97327.58
2023-04-23T02:20:21.192Z,97321.14
2023-04-23T02:22:52.671Z,97331.54
2023-04-23T02:25:21.396Z,97318.91
2023-04-23T02:27:50.148Z,97329.64
2023-04-23T02:30:18.124Z,97330.98
2023-04-23T02:32:46.403Z,97323.72
2023-04-23T02:35:14.413Z,97324.83
2023-04-23T02:37:42.159Z,97320.88
2023-04-23T02:40:11.373Z,97324.12
2023-04-23T02:42:40.312Z,97316.86
2023-04-23T02:45:10.023Z,97314.17
2023-04-23T02:47:38.315Z,97315.52
2023-04-23T02:50:07.563Z,97316.56
2023-04-23T02:52:38.428Z,97312.77
2023-04-23T02:55:08.602Z,97310.41
2023-04-23T02:57:43.976Z,97311.98
2023-04-23T03:00:19.593Z,97313.09
2023-04-23T03:02:47.989Z,97312.84
2023-04-23T03:05:16.449Z,97312.28
2023-04-23T03:07:44.376Z,97312.28
2023-04-23T03:10:12.535Z,97314.73
2023-04-23T03:12:40.417Z,97326.24
2023-04-23T03:15:11.297Z,97323.10
2023-04-23T03:17:39.597Z,97323.73
2023-04-23T03:20:11.010Z,97322.16
2023-04-23T03:22:39.120Z,97316.53
2023-04-23T03:25:08.744Z,97317.61
2023-04-23T03:27:44.089Z,97313.92
2023-04-23T03:30:12.460Z,97319.28
2023-04-23T03:32:40.908Z,97316.11
2023-04-23T03:35:09.310Z,97319.12
2023-04-23T03:37:37.612Z,97316.73
2023-04-23T03:40:07.969Z,97325.00
2023-04-23T03:42:37.092Z,97322.16
2023-04-23T03:45:06.823Z,97326.80
2023-04-23T03:47:36.366Z,97329.48
2023-04-23T03:50:05.227Z,97327.13
2023-04-23T03:52:33.369Z,97329.25
2023-04-23T03:55:02.441Z,97332.16
2023-04-23T03:57:32.135Z,97327.62
2023-04-23T04:00:09.125Z,97330.14
2023-04-23T04:02:40.416Z,97328.41
2023-04-23T04:05:10.922Z,97328.59
2023-04-23T04:07:44.503Z,97329.25
2023-04-23T04:10:13.407Z,97333.20
2023-04-23T04:12:41.930Z,97338.17
2023-04-23T04:15:13.209Z,97329.73
2023-04-23T04:17:41.033Z,97326.98
2023-04-23T04:20:10.698Z,97329.50
2023-04-23T04:22:38.781Z,97332.34
2023-04-23T04:25:07.427Z,97332.98
2023-04-23T04:27:35.717Z,97332.03
2023-04-23T04:30:05.021Z,97336.22
2023-04-23T04:32:32.963Z,97340.63
2023-04-23T04:35:02.229Z,97339.22
2023-04-23T04:37:29.999Z,97338.52
2023-04-23T04:39:57.975Z,97346.17
2023-04-23T04:42:25.811Z,97345.70
2023-04-23T04:44:53.627Z,97346.94
2023-04-23T04:47:21.857Z,97346.46
2023-04-23T04:49:49.570Z,97348.67
2023-04-23T04:52:17.547Z,97350.65
2023-04-23T04:54:45.546Z,97352.06
2023-04-23T04:57:13.423Z,97352.82
2023-04-23T04:59:41.871Z,97353.61
2023-04-23T05:02:10.392Z,97353.68
2023-04-23T05:04:42.526Z,97357.11
2023-04-23T05:07:13.023Z,97356.55
2023-04-23T05:09:44.820Z,97352.62
2023-04-23T05:12:13.247Z,97361.03
2023-04-23T05:14:46.327Z,97357.91
2023-04-23T05:17:16.481Z,97358.94
2023-04-23T05:19:44.779Z,97356.27
2023-04-23T05:22:12.934Z,97361.55
2023-04-23T05:24:41.226Z,97358.60
2023-04-23T05:27:19.770Z,97358.31
2023-04-23T05:29:48.025Z,97352.58
2023-04-23T05:32:16.511Z,97356.13
2023-04-23T05:34:44.619Z,97357.31
2023-04-23T05:37:12.558Z,97356.23
2023-04-23T05:39:43.937Z,97362.11
2023-04-23T05:42:12.469Z,97356.83
2023-04-23T05:44:41.600Z,97351.00
2023-04-23T05:47:12.888Z,97357.70
2023-04-23T05:49:43.787Z,97353.88
2023-04-23T05:52:19.870Z,97356.92
2023-04-23T05:55:05.885Z,97362.09
2023-04-23T05:57:40.541Z,97364.55
2023-04-23T06:00:12.648Z,97364.29
2023-04-23T06:02:42.721Z,97364.33
2023-04-23T06:05:11.246Z,97365.46
2023-04-23T06:07:40.893Z,97369.97
2023-04-23T06:10:11.351Z,97369.82
2023-04-23T06:16:17.674Z,97368.50
2023-04-23T06:19:01.182Z,97367.05
2023-04-23T06:28:15.654Z,97357.41
2023-04-23T06:30:54.678Z,97360.95
2023-04-23T06:33:40.163Z,97358.30
2023-04-23T06:36:22.321Z,97353.73
2023-04-23T06:39:03.279Z,97359.75
2023-04-23T06:41:43.805Z,97361.22
2023-04-23T06:44:45.766Z,97355.63
2023-04-23T06:47:35.183Z,97352.66
2023-04-23T06:50:13.354Z,97349.66
2023-04-23T06:53:01.629Z,97358.09
2023-04-23T06:55:36.088Z,97360.94
2023-04-23T06:58:44.170Z,97361.13
2023-04-23T07:04:42.390Z,97360.34
2023-04-23T07:07:35.461Z,97362.48
2023-04-23T07:10:38.238Z,97364.51
2023-04-23T07:13:23.461Z,97340.87
2023-04-23T07:16:27.394Z,97370.25
2023-04-23T07:19:18.555Z,97372.81
2023-04-23T07:22:27.765Z,97373.41
2023-04-23T07:24:52.124Z,97371.37
2023-04-23T07:27:26.489Z,97375.08
2023-04-23T07:30:03.498Z,97348.72
2023-04-23T07:32:34.997Z,97362.30
2023-04-23T07:35:14.421Z,97370.72
2023-04-23T07:37:48.460Z,97366.16
2023-04-23T07:40:23.928Z,97366.20
2023-04-23T07:46:13.750Z,97360.17
2023-04-23T07:48:56.128Z,97356.66
2023-04-23T07:51:39.956Z,97355.48
2023-04-23T07:54:31.671Z,97354.70
2023-04-23T07:57:16.689Z,97356.83
2023-04-23T07:59:53.702Z,97351.16
2023-04-23T08:02:29.356Z,97349.59
2023-04-23T08:05:04.552Z,97345.14
2023-04-23T08:07:48.885Z,97345.92
2023-04-23T08:10:23.485Z,97352.97
2023-04-23T08:13:07.446Z,97345.34
2023-04-23T08:15:40.265Z,97346.32
2023-04-23T08:18:15.570Z,97346.13
2023-04-23T08:20:51.942Z,97342.15
2023-04-23T08:23:29.883Z,97338.34
2023-04-23T08:26:09.347Z,97335.16
2023-04-23T08:28:39.010Z,97338.27
2023-04-23T08:31:26.250Z,97322.99
2023-04-23T08:33:59.114Z,97327.09
2023-04-23T08:36:41.122Z,97327.78
2023-04-23T08:39:14.045Z,97324.89
2023-04-23T08:41:50.861Z,97320.95
2023-04-23T08:44:28.238Z,97314.45
2023-04-23T08:47:02.862Z,97320.00
2023-04-23T08:49:34.767Z,97322.30
2023-04-23T08:52:16.970Z,97318.11
2023-04-23T08:54:49.328Z,97317.25
2023-04-23T08:57:17.990Z,97316.53
2023-04-23T08:59:47.449Z,97307.89
2023-04-23T09:02:16.999Z,97307.84
2023-04-23T09:04:46.331Z,97307.92
2023-04-23T09:07:15.430Z,97310.78
2023-04-23T09:09:44.849Z,97311.25
2023-04-23T09:12:12.889Z,97307.14
2023-04-23T09:14:41.132Z,97304.20
2023-04-23T09:17:09.455Z,97290.72
2023-04-23T09:19:40.664Z,97299.78
2023-04-23T09:22:09.568Z,97299.88
2023-04-23T09:24:37.449Z,97301.29
2023-04-23T09:27:05.577Z,97300.39
2023-04-23T09:29:33.573Z,97299.92
2023-04-23T09:32:09.852Z,97301.03
2023-04-23T09:34:38.260Z,97295.77
2023-04-23T09:37:10.782Z,97295.30
2023-04-23T09:39:40.736Z,97294.22
2023-04-23T09:42:10.743Z,97289.13
2023-04-23T09:44:38.697Z,97290.27
2023-04-23T09:47:14.004Z,97289.52
2023-04-23T09:49:50.592Z,97291.50
2023-04-23T09:52:19.097Z,97279.48
2023-04-23T09:54:47.105Z,97286.27
2023-04-23T09:57:14.957Z,97271.69
2023-04-23T09:59:47.711Z,97274.59
2023-04-23T10:02:16.322Z,97269.57
2023-04-23T10:04:44.699Z,97272.59
2023-04-23T10:09:43.528Z,97267.32
2023-04-23T10:12:29.575Z,97262.84
2023-04-23T10:14:44.610Z,97259.86
2023-04-23T10:17:12.824Z,97258.09
2023-04-23T10:19:43.374Z,97251.63
2023-04-23T10:22:19.125Z,97251.63
2023-04-23T10:24:49.163Z,97241.30
2023-04-23T10:29:55.061Z,97237.23
2023-04-23T10:32:24.489Z,97238.23
2023-04-23T10:34:53.461Z,97234.48
2023-04-23T10:37:22.367Z,97233.77
2023-04-23T10:39:54.976Z,97226.78
2023-04-23T10:42:23.692Z,97224.66
2023-04-23T10:45:02.726Z,97225.66
2023-04-23T10:47:31.269Z,97225.59
2023-04-23T10:50:04.744Z,97222.25
2023-04-23T10:52:33.003Z,97224.94
2023-04-23T10:55:01.313Z,97218.76
2023-04-23T10:57:29.488Z,97213.74
2023-04-23T10:59:58.605Z,97213.66
2023-04-23T11:02:26.852Z,97215.38
2023-04-23T11:04:58.818Z,97214.17
2023-04-23T11:07:33.278Z,97227.44
2023-04-23T11:10:15.578Z,97215.50
2023-04-23T11:12:45.022Z,97224.94
2023-04-23T11:15:16.240Z,97225.38
2023-04-23T11:17:49.863Z,97214.81
2023-04-23T11:20:23.425Z,97220.83
2023-04-23T11:22:52.982Z,97222.28
2023-04-23T11:25:26.110Z,97218.30
2023-04-23T11:28:01.304Z,97223.75
2023-04-23T11:30:30.582Z,97218.84
2023-04-23T11:33:00.771Z,97215.53
2023-04-23T11:35:30.054Z,97209.64
2023-04-23T11:37:58.120Z,97208.06
2023-04-23T11:40:28.106Z,97232.11
2023-04-23T11:42:57.129Z,97222.84
2023-04-23T11:45:28.038Z,97217.77
2023-04-23T11:47:58.517Z,97223.70
2023-04-23T11:50:30.077Z,97218.81
2023-04-23T11:52:58.743Z,97217.09
2023-04-23T11:55:28.961Z,97222.22
2023-04-23T11:58:00.001Z,97211.87
2023-04-23T12:00:28.114Z,97211.09
2023-04-23T12:02:59.593Z,97206.27
2023-04-23T12:05:39.084Z,97206.09
2023-04-23T12:08:15.962Z,97202.59
2023-04-23T12:10:57.351Z,97205.88
2023-04-23T12:13:30.752Z,97191.44
2023-04-23T12:16:01.507Z,97194.11
2023-04-23T12:18:32.886Z,97187.90
2023-04-23T12:21:12.926Z,97177.21
2023-04-23T12:23:44.206Z,97176.62
2023-04-23T12:26:16.504Z,97186.77
2023-04-23T12:28:56.648Z,97170.77
2023-04-23T12:31:29.603Z,97178.78
2023-04-23T12:34:10.232Z,97157.33
2023-04-23T12:36:40.651Z,97155.94
2023-04-23T12:39:33.525Z,97150.83
2023-04-23T12:42:06.208Z,97151.78
2023-04-23T12:44:36.886Z,97154.08
2023-04-23T12:47:11.733Z,97150.58
2023-04-23T12:49:43.289Z,97150.41
2023-04-23T12:52:14.012Z,97142.38
2023-04-23T12:54:49.708Z,97141.63
2023-04-23T12:57:21.170Z,97143.22
2023-04-23T12:59:51.516Z,97140.53
2023-04-23T13:02:19.905Z,97137.45
2023-04-23T13:04:48.242Z,97125.36
2023-04-23T13:07:16.392Z,97134.31
2023-04-23T13:09:45.651Z,97137.42
2023-04-23T13:12:13.852Z,97136.47
2023-04-23T13:14:41.960Z,97131.20
2023-04-23T13:17:09.865Z,97131.60
2023-04-23T13:19:39.438Z,97133.92
2023-04-23T13:22:08.631Z,97129.05
2023-04-23T13:24:37.207Z,97129.05
2023-04-23T13:27:05.437Z,97122.45
2023-04-23T13:29:33.609Z,97114.63
2023-04-23T13:32:01.710Z,97099.98
2023-04-23T13:34:30.425Z,97100.74
2023-04-23T13:37:03.044Z,97105.27
2023-04-23T13:39:32.386Z,97101.17
2023-04-23T13:42:09.076Z,97099.02
2023-04-23T13:44:32.059Z,97096.52
2023-04-23T13:47:01.461Z,97102.94
2023-04-23T13:49:30.257Z,97105.28
2023-04-23T13:52:00.139Z,97101.41
2023-04-23T13:54:29.273Z,97102.38
2023-04-23T13:56:58.893Z,97102.19
2023-04-23T13:59:27.324Z,97095.37
2023-04-23T14:01:55.321Z,97097.11
2023-04-23T14:04:25.037Z,97088.73
2023-04-23T14:06:53.272Z,97097.70
2023-04-23T14:09:23.902Z,97087.75
2023-04-23T14:11:54.922Z,97087.75
2023-04-23T14:14:36.247Z,97089.09
2023-04-23T14:17:04.444Z,97080.91
2023-04-23T14:19:35.068Z,97083.77
2023-04-23T14:22:04.003Z,97085.34
2023-04-23T14:24:40.127Z,97085.11
2023-04-23T14:27:09.100Z,97085.09
2023-04-23T14:29:48.427Z,97088.57
2023-04-23T14:32:16.552Z,97081.39
2023-04-23T14:34:46.031Z,97078.08
2023-04-23T14:37:17.383Z,97078.47
2023-04-23T14:39:46.502Z,97074.94
2023-04-23T14:42:15.425Z,97078.24
2023-04-23T14:44:45.607Z,97080.40
2023-04-23T14:47:16.616Z,97073.23
2023-04-23T14:49:47.924Z,97067.04
2023-04-23T14:52:17.103Z,97070.98
2023-04-23T14:54:46.105Z,97070.23
2023-04-23T14:57:14.182Z,97067.51
2023-04-23T14:59:47.785Z,97067.11
2023-04-23T15:02:16.833Z,97063.20
2023-04-23T15:04:45.855Z,97068.88
2023-04-23T15:07:13.923Z,97062.24
2023-04-23T15:09:42.338Z,97062.24
2023-04-23T15:12:24.682Z,97064.01
2023-04-23T15:14:54.794Z,97059.52
2023-04-23T15:17:23.148Z,97061.28
2023-04-23T15:19:52.822Z,97057.56
2023-04-23T15:22:20.888Z,97060.30
2023-04-23T15:24:49.086Z,97061.66
2023-04-23T15:27:17.159Z,97055.02
2023-04-23T15:29:45.110Z,97055.42
2023-04-23T15:32:32.028Z,97055.42
2023-04-23T15:35:08.436Z,97056.39
2023-04-23T15:37:36.645Z,97052.11
2023-04-23T15:40:07.560Z,97050.16
2023-04-23T15:42:35.439Z,97054.66
2023-04-23T15:45:04.287Z,97049.20
2023-04-23T15:47:32.324Z,97049.20
2023-04-23T15:50:01.633Z,97049.56
2023-04-23T15:52:30.699Z,97048.59
2023-04-23T15:54:59.211Z,97052.69
2023-04-23T15:57:27.261Z,97046.06
2023-04-23T15:59:57.548Z,97043.34
2023-04-23T16:02:25.407Z,97046.47
2023-04-23T16:04:55.363Z,97043.34
2023-04-23T16:07:23.224Z,97052.88
2023-04-23T16:09:51.227Z,97048.42
2023-04-23T16:12:19.098Z,97049.19
2023-04-23T16:14:47.107Z,97046.25
2023-04-23T16:17:16.484Z,97050.11
2023-04-23T16:19:45.000Z,97043.48
2023-04-23T16:22:14.350Z,97047.56
2023-04-23T16:24:42.380Z,97044.65
2023-04-23T16:27:16.013Z,97047.95
2023-04-23T16:29:44.643Z,97046.58
2023-04-23T16:32:12.753Z,97046.77
2023-04-23T16:34:41.156Z,97046.94
2023-04-23T16:37:09.803Z,97055.09
2023-04-23T16:39:37.665Z,97053.33
2023-04-23T16:42:06.291Z,97053.66
2023-04-23T16:44:34.451Z,97054.20
2023-04-23T16:47:02.569Z,97057.45
2023-04-23T16:49:30.742Z,97055.98
2023-04-23T16:51:58.343Z,97054.34
2023-04-23T16:54:26.492Z,97053.69
2023-04-23T16:56:55.270Z,97054.81
2023-04-23T16:59:25.005Z,97062.48
2023-04-23T17:02:02.238Z,97071.89
2023-04-23T17:04:30.412Z,97092.78
2023-04-23T17:06:58.514Z,97105.39
2023-04-23T17:09:26.426Z,97107.13
2023-04-23T17:11:54.488Z,97113.34
2023-04-23T17:14:22.687Z,97117.78
2023-04-23T17:16:50.421Z,97120.67
2023-04-23T17:19:18.197Z,97113.17
2023-04-23T17:21:45.933Z,97109.79
2023-04-23T17:24:16.517Z,97110.70
2023-04-23T17:26:44.725Z,97111.97
2023-04-23T17:29:15.528Z,97112.91
2023-04-23T17:31:43.414Z,97120.95
2023-04-23T17:34:11.385Z,97123.20
2023-04-23T17:36:39.427Z,97124.86
2023-04-23T17:39:15.999Z,97134.52
2023-04-23T17:41:43.934Z,97134.81
2023-04-23T17:44:15.233Z,97137.47
2023-04-23T17:46:43.032Z,97141.69
2023-04-23T17:49:11.778Z,97138.86
2023-04-23T17:51:42.127Z,97139.95
2023-04-23T17:54:12.228Z,97147.83
2023-04-23T17:56:45.482Z,97149.70
2023-04-23T17:59:13.654Z,97151.71
2023-04-23T18:01:46.326Z,97150.23
2023-04-23T18:04:13.993Z,97152.38
2023-04-23T18:06:42.965Z,97148.56
2023-04-23T18:09:11.351Z,97157.91
2023-04-23T18:11:39.866Z,97156.98
2023-04-23T18:14:07.963Z,97152.64
2023-04-23T18:16:36.467Z,97151.77
2023-04-23T18:19:04.597Z,97161.02
2023-04-23T18:21:33.597Z,97158.67
2023-04-23T18:24:01.534Z,97162.88
2023-04-23T18:26:33.456Z,97160.48
2023-04-23T18:29:01.960Z,97165.97
2023-04-23T18:31:34.144Z,97167.58
2023-04-23T18:34:10.877Z,97163.81
2023-04-23T18:36:44.277Z,97167.05
2023-04-23T18:39:12.515Z,97167.51
2023-04-23T18:41:55.567Z,97174.02
2023-04-23T18:44:25.676Z,97171.39
2023-04-23T18:46:53.862Z,97174.03
2023-04-23T18:49:41.210Z,97172.51
2023-04-23T18:52:12.097Z,97165.13
2023-04-23T18:54:43.687Z,97168.91
2023-04-23T18:57:11.851Z,97168.27
2023-04-23T18:59:40.183Z,97164.81
2023-04-23T19:02:18.784Z,97166.55
2023-04-23T19:04:47.281Z,97163.23
2023-04-23T19:07:17.293Z,97169.69
2023-04-23T19:09:45.516Z,97173.19
2023-04-23T19:12:20.045Z,97171.07
2023-04-23T19:14:50.233Z,97180.06
2023-04-23T19:17:20.916Z,97177.73
2023-04-23T19:19:49.791Z,97180.58
2023-04-23T19:22:23.612Z,97174.05
2023-04-23T19:24:52.896Z,97168.70
2023-04-23T19:27:24.413Z,97168.70
2023-04-23T19:29:58.637Z,97164.77
2023-04-23T19:32:30.452Z,97174.56
2023-04-23T19:35:01.707Z,97178.72
2023-04-23T19:37:31.630Z,97177.72
2023-04-23T19:40:00.620Z,97173.43
2023-04-23T19:42:31.293Z,97171.09
2023-04-23T19:44:59.861Z,97173.33
2023-04-23T19:47:28.427Z,97169.42
2023-04-23T19:49:56.982Z,97164.99
2023-04-23T19:52:27.832Z,97159.28
2023-04-23T19:54:59.334Z,97162.76
2023-04-23T19:57:30.422Z,97162.44
2023-04-23T20:00:01.152Z,97161.76
2023-04-23T20:02:29.231Z,97158.28
2023-04-23T20:04:57.301Z,97151.65
2023-04-23T20:07:25.677Z,97155.36
2023-04-23T20:09:56.694Z,97151.99
2023-04-23T20:12:25.184Z,97152.80
2023-04-23T20:14:53.901Z,97152.34
2023-04-23T20:17:23.360Z,97155.13
2023-04-23T20:19:52.112Z,97154.69
2023-04-23T20:22:20.401Z,97151.31
2023-04-23T20:24:48.596Z,97152.00
2023-04-23T20:27:16.644Z,97157.49
2023-04-23T20:29:44.808Z,97162.77
2023-04-23T20:32:13.468Z,97161.18
2023-04-23T20:34:41.614Z,97157.34
2023-04-23T20:37:10.441Z,97163.39
2023-04-23T20:39:45.289Z,97158.13
2023-04-23T20:42:18.531Z,97163.05
2023-04-23T20:44:46.632Z,97163.50
2023-04-23T20:47:16.252Z,97165.51
2023-04-23T20:49:48.974Z,97164.61
2023-04-23T20:52:17.154Z,97168.28
2023-04-23T20:54:48.612Z,97167.47
2023-04-23T20:57:17.167Z,97158.36
2023-04-23T20:59:45.127Z,97161.05
2023-04-23T21:02:17.018Z,97160.15
2023-04-23T21:04:44.973Z,97160.47
2023-04-23T21:07:13.016Z,97152.73
2023-04-23T21:09:41.594Z,97157.43
2023-04-23T21:12:13.078Z,97158.65
2023-04-23T21:18:03.737Z,97160.39
2023-04-23T21:20:32.144Z,97166.83
2023-04-23T21:23:00.823Z,97165.92
2023-04-23T21:25:28.922Z,97163.10
2023-04-23T21:27:58.123Z,97157.13
2023-04-23T21:30:43.155Z,97158.12
2023-04-23T21:33:11.328Z,97154.52
2023-04-23T21:35:41.857Z,97141.69
2023-04-23T21:38:12.502Z,97152.22
2023-04-23T21:40:41.438Z,97146.89
2023-04-23T21:43:10.090Z,97148.21
2023-04-23T21:45:39.303Z,97142.31
2023-04-23T21:48:07.495Z,97143.30
2023-04-23T21:50:35.740Z,97142.61
2023-04-23T21:53:03.563Z,97144.38
2023-04-23T21:55:31.580Z,97149.83
2023-04-23T21:58:13.800Z,97147.80
2023-04-23T22:00:30.366Z,97147.57
2023-04-23T22:02:58.550Z,97143.87
2023-04-23T22:05:28.055Z,97141.50
2023-04-23T22:07:57.845Z,97135.13
2023-04-23T22:10:26.663Z,97134.20
2023-04-23T22:12:55.727Z,97132.38
2023-04-23T22:15:44.718Z,97127.87
2023-04-23T22:18:13.019Z,97126.31
2023-04-23T22:20:42.752Z,97126.95
2023-04-23T22:23:10.811Z,97123.44
2023-04-23T22:25:38.606Z,97121.39
2023-04-23T22:28:07.160Z,97124.50
2023-04-23T22:30:36.126Z,97121.45
2023-04-23T22:33:05.061Z,97111.71
2023-04-23T22:35:33.089Z,97123.70
2023-04-23T22:38:03.568Z,97119.84
2023-04-23T22:40:32.015Z,97120.59
2023-04-23T22:43:00.875Z,97114.61
2023-04-23T22:45:30.454Z,97113.12
2023-04-23T22:47:58.495Z,97104.62
2023-04-23T22:50:28.731Z,97097.84
2023-04-23T22:52:56.730Z,97097.14
2023-04-23T22:55:24.639Z,97093.98
2023-04-23T22:57:52.503Z,97099.91
2023-04-23T23:00:20.388Z,97097.48
2023-04-23T23:02:48.301Z,97095.58
2023-04-23T23:05:16.384Z,97098.16
2023-04-23T23:07:44.216Z,97096.03
2023-04-23T23:10:12.229Z,97093.59
2023-04-23T23:12:40.043Z,97087.98
2023-04-23T23:15:09.911Z,97089.09
2023-04-23T23:17:38.050Z,97085.62
2023-04-23T23:20:13.831Z,97088.87
2023-04-23T23:22:42.703Z,97091.78
2023-04-23T23:25:10.712Z,97088.53
2023-04-23T23:27:38.688Z,97083.39
2023-04-23T23:30:09.030Z,97080.19
2023-04-23T23:32:38.851Z,97075.60
2023-04-23T23:35:07.765Z,97077.09
2023-04-23T23:37:35.835Z,97069.82
2023-04-23T23:40:06.366Z,97069.48
2023-04-23T23:42:34.462Z,97067.28
2023-04-23T23:45:02.430Z,97058.11
2023-04-23T23:47:31.065Z,97061.05
2023-04-23T23:49:58.903Z,97056.47
2023-04-23T23:52:27.164Z,97055.58
2023-04-23T23:54:55.175Z,97043.50
2023-04-23T23:57:27.972Z,97038.39
2023-04-23T23:59:56.465Z,97040.17
